createdAt,value
2019-02-02T00:01:25.101Z,4.30
2019-02-02T00:03:52.116Z,4.30
2019-02-02T00:06:19.106Z,4.30
2019-02-02T00:08:46.053Z,4.40
2019-02-02T00:11:12.930Z,4.40
2019-02-02T00:13:39.857Z,4.60
2019-02-02T00:16:06.921Z,4.50
2019-02-02T00:18:34.024Z,4.50
2019-02-02T00:21:01.070Z,4.50
2019-02-02T00:23:28.104Z,4.60
2019-02-02T00:25:55.113Z,4.60
2019-02-02T00:28:22.168Z,4.60
2019-02-02T00:30:49.117Z,4.50
2019-02-02T00:33:16.086Z,4.50
2019-02-02T00:35:43.185Z,4.40
2019-02-02T00:38:10.101Z,4.40
2019-02-02T00:40:37.173Z,4.40
2019-02-02T00:43:04.912Z,4.40
2019-02-02T00:45:31.893Z,4.50
2019-02-02T00:47:58.890Z,4.50
2019-02-02T00:50:25.898Z,4.50
2019-02-02T00:52:52.949Z,4.50
2019-02-02T00:55:19.912Z,4.60
2019-02-02T00:57:53.552Z,4.60
2019-02-02T01:00:16.073Z,4.50
2019-02-02T01:02:43.233Z,4.40
2019-02-02T01:05:12.376Z,4.30
2019-02-02T01:07:39.458Z,4.30
2019-02-02T01:10:11.288Z,4.30
2019-02-02T01:12:38.479Z,4.40
2019-02-02T01:15:05.929Z,4.50
2019-02-02T01:17:32.875Z,4.50
2019-02-02T01:19:59.992Z,4.30
2019-02-02T01:22:27.036Z,4.40
2019-02-02T01:24:54.025Z,4.30
2019-02-02T01:27:21.097Z,4.30
2019-02-02T01:29:50.452Z,4.40
2019-02-02T01:32:17.538Z,4.40
2019-02-02T01:34:44.557Z,4.40
2019-02-02T01:37:11.567Z,4.30
2019-02-02T01:39:38.718Z,4.30
2019-02-02T01:42:05.757Z,4.20
2019-02-02T01:44:32.676Z,4.20
2019-02-02T01:46:59.636Z,4.20
2019-02-02T01:49:26.643Z,4.30
2019-02-02T01:51:53.716Z,4.20
2019-02-02T01:54:20.832Z,4.20
2019-02-02T01:56:47.877Z,4.20
2019-02-02T01:59:14.895Z,4.30
2019-02-02T02:01:41.893Z,4.30
2019-02-02T02:04:09.028Z,4.40
2019-02-02T02:06:35.977Z,4.40
2019-02-02T02:09:05.029Z,4.30
2019-02-02T02:11:32.034Z,4.20
2019-02-02T02:13:59.009Z,4.30
2019-02-02T02:16:25.909Z,4.40
2019-02-02T02:18:52.881Z,4.40
2019-02-02T02:21:19.841Z,4.40
2019-02-02T02:23:46.987Z,4.40
2019-02-02T02:26:13.984Z,4.30
2019-02-02T02:28:40.995Z,4.20
2019-02-02T02:31:08.238Z,4.30
2019-02-02T02:33:35.316Z,4.40
2019-02-02T02:36:02.356Z,4.40
2019-02-02T02:38:29.454Z,4.50
2019-02-02T02:40:56.491Z,4.40
2019-02-02T02:43:23.483Z,4.30
2019-02-02T02:45:50.569Z,4.40
2019-02-02T02:48:17.639Z,4.40
2019-02-02T02:50:44.729Z,4.40
2019-02-02T02:53:11.763Z,4.40
2019-02-02T02:55:38.876Z,4.40
2019-02-02T02:58:05.847Z,4.40
2019-02-02T03:00:32.823Z,4.40
2019-02-02T03:02:59.875Z,4.40
2019-02-02T03:05:26.905Z,4.40
2019-02-02T03:07:54.069Z,4.40
2019-02-02T03:10:22.612Z,4.30
2019-02-02T03:12:49.747Z,4.20
2019-02-02T03:15:17.065Z,4.20
2019-02-02T03:17:44.772Z,4.20
2019-02-02T03:20:12.479Z,4.40
2019-02-02T03:22:39.553Z,4.40
2019-02-02T03:25:09.594Z,4.50
2019-02-02T03:27:36.606Z,4.50
2019-02-02T03:30:05.746Z,4.50
2019-02-02T03:32:32.868Z,4.40
2019-02-02T03:34:59.912Z,4.40
2019-02-02T03:37:26.945Z,4.30
2019-02-02T03:39:53.958Z,4.30
2019-02-02T03:42:20.911Z,4.20
2019-02-02T03:44:47.868Z,4.10
2019-02-02T03:47:14.824Z,4.20
2019-02-02T03:49:41.746Z,4.20
2019-02-02T03:52:08.813Z,4.20
2019-02-02T03:54:35.833Z,4.30
2019-02-02T03:57:02.927Z,4.30
2019-02-02T03:59:29.911Z,4.30
2019-02-02T04:01:56.849Z,4.20
2019-02-02T04:04:24.368Z,4.20
2019-02-02T04:06:51.317Z,4.10
2019-02-02T04:09:18.386Z,4.20
2019-02-02T04:11:45.847Z,4.30
2019-02-02T04:14:12.826Z,4.30
2019-02-02T04:16:39.854Z,4.40
2019-02-02T04:19:06.826Z,4.40
2019-02-02T04:21:33.975Z,4.30
2019-02-02T04:24:00.881Z,4.30
2019-02-02T04:26:27.986Z,4.20
2019-02-02T04:28:55.074Z,4.20
2019-02-02T04:31:22.094Z,4.20
2019-02-02T04:33:49.164Z,4.20
2019-02-02T04:36:16.272Z,4.20
2019-02-02T04:38:43.417Z,4.30
2019-02-02T04:41:10.464Z,4.30
2019-02-02T04:43:37.414Z,4.40
2019-02-02T04:46:04.461Z,4.40
2019-02-02T04:48:32.584Z,4.40
2019-02-02T04:50:59.807Z,4.40
2019-02-02T04:53:26.767Z,4.40
2019-02-02T04:55:53.746Z,4.40
2019-02-02T04:58:20.814Z,4.10
2019-02-02T05:00:47.813Z,4.00
2019-02-02T05:03:14.824Z,4.10
2019-02-02T05:05:41.829Z,4.10
2019-02-02T05:08:08.771Z,4.20
2019-02-02T05:10:35.773Z,4.30
2019-02-02T05:13:02.705Z,4.30
2019-02-02T05:15:29.667Z,4.30
2019-02-02T05:17:56.718Z,4.30
2019-02-02T05:20:23.782Z,4.30
2019-02-02T05:22:50.899Z,4.30
2019-02-02T05:25:17.827Z,4.30
2019-02-02T05:27:44.788Z,4.30
2019-02-02T05:30:14.916Z,4.30
2019-02-02T05:32:41.863Z,4.30
2019-02-02T05:35:08.997Z,4.30
2019-02-02T05:37:35.940Z,4.30
2019-02-02T05:40:04.248Z,4.30
2019-02-02T05:42:31.234Z,4.30
2019-02-02T05:44:58.239Z,4.30
2019-02-02T05:47:25.197Z,4.30
2019-02-02T05:49:52.255Z,4.20
2019-02-02T05:52:19.211Z,4.10
2019-02-02T05:54:46.214Z,4.10
2019-02-02T05:57:13.181Z,4.10
2019-02-02T05:59:52.144Z,4.10
2019-02-02T06:02:09.568Z,4.10
2019-02-02T06:04:36.573Z,4.00
2019-02-02T06:07:03.565Z,4.10
2019-02-02T06:09:30.716Z,4.20
2019-02-02T06:11:57.606Z,4.20
2019-02-02T06:14:24.664Z,4.10
2019-02-02T06:16:51.742Z,4.20
2019-02-02T06:19:18.722Z,4.20
2019-02-02T06:21:45.756Z,4.20
2019-02-02T06:24:12.780Z,4.20
2019-02-02T06:26:39.788Z,4.30
2019-02-02T06:29:06.810Z,4.30
2019-02-02T06:31:33.854Z,4.40
2019-02-02T06:34:00.848Z,4.40
2019-02-02T06:36:27.802Z,4.40
2019-02-02T06:38:54.845Z,4.50
2019-02-02T06:41:21.769Z,4.40
2019-02-02T06:43:48.695Z,4.40
2019-02-02T06:46:15.644Z,4.60
2019-02-02T06:48:42.571Z,4.60
2019-02-02T06:51:09.593Z,4.50
2019-02-02T06:53:36.484Z,4.50
2019-02-02T06:56:03.692Z,4.50
2019-02-02T06:58:30.633Z,4.60
2019-02-02T07:00:57.656Z,4.50
2019-02-02T07:03:24.573Z,4.60
2019-02-02T07:05:51.599Z,4.70
2019-02-02T07:08:18.612Z,4.70
2019-02-02T07:10:46.786Z,4.70
2019-02-02T07:13:14.465Z,4.70
2019-02-02T07:15:41.490Z,4.70
2019-02-02T07:18:08.722Z,4.60
2019-02-02T07:20:35.828Z,4.60
2019-02-02T07:23:02.789Z,4.60
2019-02-02T07:25:29.704Z,4.60
2019-02-02T07:30:39.700Z,4.60
2019-02-02T07:33:06.644Z,4.60
2019-02-02T07:35:34.084Z,4.60
2019-02-02T07:38:01.038Z,4.60
2019-02-02T07:40:28.168Z,4.60
2019-02-02T07:42:55.225Z,4.60
2019-02-02T07:45:24.648Z,4.60
2019-02-02T07:47:51.694Z,4.40
2019-02-02T07:50:18.704Z,4.40
2019-02-02T07:52:45.915Z,4.30
2019-02-02T07:55:14.609Z,4.30
2019-02-02T07:57:41.681Z,4.30
2019-02-02T08:00:16.055Z,4.30
2019-02-02T08:02:43.149Z,4.40
2019-02-02T08:05:10.201Z,4.40
2019-02-02T08:07:37.422Z,4.40
2019-02-02T08:10:06.506Z,4.40
2019-02-02T08:12:34.024Z,4.40
2019-02-02T08:15:01.335Z,4.60
2019-02-02T08:17:28.341Z,4.70
2019-02-02T08:19:55.397Z,4.70
2019-02-02T08:22:22.780Z,4.70
2019-02-02T08:24:49.655Z,4.70
2019-02-02T08:27:16.537Z,4.80
2019-02-02T08:29:43.557Z,4.90
2019-02-02T08:32:10.644Z,4.80
2019-02-02T08:34:37.597Z,4.80
2019-02-02T08:37:04.533Z,4.90
2019-02-02T08:39:31.536Z,4.90
2019-02-02T08:41:58.601Z,4.90
2019-02-02T08:44:25.567Z,4.90
2019-02-02T08:46:52.561Z,4.90
2019-02-02T08:49:19.584Z,5.00
2019-02-02T08:51:46.492Z,4.90
2019-02-02T08:54:13.539Z,5.00
2019-02-02T08:56:40.653Z,5.00
2019-02-02T08:59:07.568Z,5.00
2019-02-02T09:01:34.525Z,5.00
2019-02-02T09:04:01.651Z,4.80
2019-02-02T09:06:38.714Z,4.80
2019-02-02T09:08:58.510Z,4.80
2019-02-02T09:11:25.548Z,5.00
2019-02-02T09:13:52.749Z,5.10
2019-02-02T09:16:19.999Z,5.10
2019-02-02T09:18:47.000Z,5.10
2019-02-02T09:21:14.703Z,5.20
2019-02-02T09:23:41.681Z,5.30
2019-02-02T09:26:08.987Z,5.30
2019-02-02T09:28:36.006Z,5.30
2019-02-02T09:31:03.121Z,5.40
2019-02-02T09:33:30.122Z,5.40
2019-02-02T09:35:57.229Z,5.40
2019-02-02T09:38:24.280Z,5.40
2019-02-02T09:40:51.243Z,5.20
2019-02-02T09:43:18.477Z,5.30
2019-02-02T09:45:45.410Z,5.40
2019-02-02T09:48:12.389Z,5.40
2019-02-02T09:50:39.440Z,5.30
2019-02-02T09:53:06.561Z,5.40
2019-02-02T09:55:33.723Z,5.40
2019-02-02T09:58:08.556Z,5.50
2019-02-02T10:00:35.020Z,5.50
2019-02-02T10:03:03.963Z,5.50
2019-02-02T10:05:32.635Z,5.50
2019-02-02T10:07:59.656Z,5.50
2019-02-02T10:10:28.744Z,5.60
2019-02-02T10:12:55.845Z,5.60
2019-02-02T10:15:23.571Z,5.60
2019-02-02T10:17:51.795Z,5.60
2019-02-02T10:20:20.830Z,5.60
2019-02-02T10:22:48.205Z,5.70
2019-02-02T10:25:21.192Z,5.70
2019-02-02T10:27:48.435Z,5.70
2019-02-02T10:30:23.740Z,5.80
2019-02-02T10:32:50.801Z,5.90
2019-02-02T10:35:18.180Z,5.90
2019-02-02T10:37:45.403Z,5.90
2019-02-02T10:40:12.777Z,5.90
2019-02-02T10:42:39.863Z,5.90
2019-02-02T10:45:08.188Z,5.80
2019-02-02T10:47:35.152Z,5.70
2019-02-02T10:50:02.446Z,5.70
2019-02-02T10:52:29.474Z,5.80
2019-02-02T10:54:56.515Z,5.80
2019-02-02T10:57:23.618Z,5.80
2019-02-02T10:59:50.586Z,5.90
2019-02-02T11:02:17.941Z,5.80
2019-02-02T11:04:45.213Z,5.80
2019-02-02T11:07:12.397Z,5.70
2019-02-02T11:09:39.373Z,5.80
2019-02-02T11:12:06.383Z,5.80
2019-02-02T11:14:33.641Z,5.80
2019-02-02T11:17:00.571Z,5.90
2019-02-02T11:19:27.617Z,5.90
2019-02-02T11:21:54.691Z,5.80
2019-02-02T11:24:21.733Z,5.80
2019-02-02T11:26:48.712Z,5.80
2019-02-02T11:29:15.774Z,5.90
2019-02-02T11:31:42.796Z,6.00
2019-02-02T11:34:09.807Z,6.00
2019-02-02T11:36:36.833Z,6.00
2019-02-02T11:39:05.190Z,5.90
2019-02-02T11:41:32.245Z,6.00
2019-02-02T11:43:59.253Z,6.00
2019-02-02T11:46:26.313Z,6.10
2019-02-02T11:48:53.342Z,6.10
2019-02-02T11:51:20.466Z,6.10
2019-02-02T11:53:47.710Z,6.10
2019-02-02T11:56:20.883Z,6.20
2019-02-02T11:58:48.060Z,6.30
2019-02-02T12:01:15.079Z,6.30
2019-02-02T12:03:42.183Z,6.40
2019-02-02T12:06:09.197Z,6.40
2019-02-02T12:08:36.234Z,6.40
2019-02-02T12:11:03.311Z,6.40
2019-02-02T12:13:30.373Z,6.50
2019-02-02T12:15:57.294Z,6.60
2019-02-02T12:18:24.300Z,6.60
2019-02-02T12:20:51.496Z,6.60
2019-02-02T12:23:18.577Z,6.60
2019-02-02T12:25:45.623Z,6.50
2019-02-02T12:28:12.662Z,6.40
2019-02-02T12:30:39.717Z,6.30
2019-02-02T12:33:06.758Z,6.40
2019-02-02T12:35:33.747Z,6.40
2019-02-02T12:38:00.778Z,6.30
2019-02-02T12:40:28.894Z,6.30
2019-02-02T12:42:55.913Z,6.40
2019-02-02T12:45:49.534Z,6.60
2019-02-02T12:48:16.457Z,6.60
2019-02-02T12:50:43.802Z,6.60
2019-02-02T12:53:10.884Z,6.60
2019-02-02T12:55:37.836Z,6.60
2019-02-02T12:58:05.710Z,6.60
2019-02-02T13:00:32.838Z,6.80
2019-02-02T13:02:59.805Z,6.90
2019-02-02T13:05:27.918Z,6.90
2019-02-02T13:07:54.862Z,6.90
2019-02-02T13:10:24.623Z,6.90
2019-02-02T13:12:52.170Z,6.90
2019-02-02T13:15:19.315Z,6.90
2019-02-02T13:17:46.528Z,6.90
2019-02-02T13:20:13.812Z,7.00
2019-02-02T13:22:40.855Z,6.80
2019-02-02T13:25:10.189Z,6.80
2019-02-02T13:27:37.227Z,6.80
2019-02-02T13:30:06.917Z,6.80
2019-02-02T13:32:33.866Z,6.80
2019-02-02T13:35:00.845Z,6.80
2019-02-02T13:37:27.869Z,6.80
2019-02-02T13:39:55.068Z,6.70
2019-02-02T13:42:22.244Z,6.70
2019-02-02T13:44:49.229Z,6.80
2019-02-02T13:47:16.314Z,6.80
2019-02-02T13:49:43.292Z,6.80
2019-02-02T13:52:10.328Z,6.80
2019-02-02T13:54:37.365Z,6.80
2019-02-02T13:57:04.310Z,6.80
2019-02-02T13:59:31.310Z,6.80
2019-02-02T14:01:58.398Z,6.80
2019-02-02T14:04:25.488Z,6.80
2019-02-02T14:06:52.683Z,6.80
2019-02-02T14:09:19.717Z,6.80
2019-02-02T14:11:46.694Z,6.80
2019-02-02T14:14:13.695Z,6.80
2019-02-02T14:16:40.679Z,6.80
2019-02-02T14:19:07.721Z,6.80
2019-02-02T14:21:34.721Z,6.80
2019-02-02T14:24:04.213Z,6.80
2019-02-02T14:26:31.260Z,6.80
2019-02-02T14:28:58.310Z,6.70
2019-02-02T14:31:25.381Z,6.80
2019-02-02T14:33:52.660Z,6.80
2019-02-02T14:36:19.747Z,6.80
2019-02-02T14:38:46.759Z,6.80
2019-02-02T14:41:13.853Z,6.70
2019-02-02T14:43:40.922Z,6.80
2019-02-02T14:46:07.939Z,6.80
2019-02-02T14:48:34.990Z,6.80
2019-02-02T14:51:02.000Z,6.80
2019-02-02T14:53:29.189Z,6.80
2019-02-02T14:55:56.534Z,6.70
2019-02-02T14:58:23.629Z,6.60
2019-02-02T15:00:53.779Z,6.60
2019-02-02T15:03:25.797Z,6.60
2019-02-02T15:05:48.468Z,6.50
2019-02-02T15:08:15.580Z,6.60
2019-02-02T15:10:42.707Z,6.60
2019-02-02T15:13:09.745Z,6.70
2019-02-02T15:15:36.733Z,6.70
2019-02-02T15:18:03.966Z,6.70
2019-02-02T15:20:33.663Z,6.60
2019-02-02T15:23:00.854Z,6.60
2019-02-02T15:25:28.171Z,6.60
2019-02-02T15:27:55.270Z,6.60
2019-02-02T15:30:24.347Z,6.60
2019-02-02T15:32:51.490Z,6.60
2019-02-02T15:35:18.439Z,6.60
2019-02-02T15:37:45.476Z,6.60
2019-02-02T15:40:14.061Z,6.50
2019-02-02T15:42:41.227Z,6.50
2019-02-02T15:45:10.102Z,6.50
2019-02-02T15:47:37.155Z,6.50
2019-02-02T15:50:05.301Z,6.50
2019-02-02T15:52:32.273Z,6.40
2019-02-02T15:55:04.555Z,6.40
2019-02-02T15:57:32.855Z,6.30
2019-02-02T15:59:59.809Z,6.30
2019-02-02T16:02:26.701Z,6.30
2019-02-02T16:04:53.830Z,6.30
2019-02-02T16:07:23.920Z,6.40
2019-02-02T16:09:50.993Z,6.30
2019-02-02T16:12:17.900Z,6.30
2019-02-02T16:14:44.872Z,6.30
2019-02-02T16:17:11.817Z,6.30
2019-02-02T16:19:38.875Z,6.30
2019-02-02T16:22:05.886Z,6.30
2019-02-02T16:24:32.895Z,6.30
2019-02-02T16:26:59.980Z,6.30
2019-02-02T16:29:26.996Z,6.30
2019-02-02T16:31:54.309Z,6.30
2019-02-02T16:34:21.431Z,6.20
2019-02-02T16:36:50.556Z,6.20
2019-02-02T16:39:17.608Z,6.20
2019-02-02T16:41:44.664Z,6.30
2019-02-02T16:44:11.888Z,6.30
2019-02-02T16:46:40.200Z,6.30
2019-02-02T16:49:07.492Z,6.30
2019-02-02T16:51:34.767Z,6.20
2019-02-02T16:54:01.914Z,6.20
2019-02-02T16:56:29.128Z,6.30
2019-02-02T16:58:56.381Z,6.20
2019-02-02T17:01:24.781Z,6.30
2019-02-02T17:03:51.813Z,6.30
2019-02-02T17:06:18.890Z,6.20
2019-02-02T17:08:46.287Z,6.20
2019-02-02T17:11:13.686Z,6.20
2019-02-02T17:13:41.910Z,6.20
2019-02-02T17:16:09.208Z,6.20
2019-02-02T17:18:36.303Z,6.20
2019-02-02T17:21:03.728Z,6.20
2019-02-02T17:23:30.801Z,6.20
2019-02-02T17:25:58.095Z,6.20
2019-02-02T17:28:25.134Z,6.10
2019-02-02T17:30:52.046Z,6.10
2019-02-02T17:33:19.122Z,6.10
2019-02-02T17:35:46.216Z,6.10
2019-02-02T17:38:13.304Z,6.10
2019-02-02T17:40:40.237Z,6.00
2019-02-02T17:43:07.341Z,6.00
2019-02-02T17:45:34.357Z,6.10
2019-02-02T17:48:01.513Z,6.10
2019-02-02T17:50:28.448Z,6.00
2019-02-02T17:52:55.420Z,6.00
2019-02-02T17:55:22.466Z,6.00
2019-02-02T17:57:49.557Z,6.00
2019-02-02T18:00:27.268Z,6.00
2019-02-02T18:02:54.308Z,6.00
2019-02-02T18:05:21.284Z,6.00
2019-02-02T18:07:48.403Z,6.00
2019-02-02T18:10:15.725Z,5.90
2019-02-02T18:12:43.030Z,5.90
2019-02-02T18:15:11.214Z,5.90
2019-02-02T18:17:38.342Z,5.80
2019-02-02T18:20:07.533Z,5.80
2019-02-02T18:22:34.619Z,5.80
2019-02-02T18:25:01.562Z,5.70
2019-02-02T18:27:28.686Z,5.70
2019-02-02T18:29:55.902Z,5.60
2019-02-02T18:32:22.906Z,5.70
2019-02-02T18:34:51.235Z,5.80
2019-02-02T18:37:19.058Z,5.80
2019-02-02T18:39:46.072Z,5.90
2019-02-02T18:42:12.986Z,5.90
2019-02-02T18:44:41.084Z,5.90
2019-02-02T18:47:07.996Z,5.90
2019-02-02T18:49:35.226Z,5.90
2019-02-02T18:52:02.425Z,5.90
2019-02-02T18:54:29.603Z,6.00
2019-02-02T18:56:56.750Z,6.00
2019-02-02T18:59:25.657Z,5.90
2019-02-02T19:01:53.079Z,5.90
2019-02-02T19:04:21.551Z,5.80
2019-02-02T19:06:48.449Z,5.70
2019-02-02T19:09:15.483Z,5.70
2019-02-02T19:11:42.534Z,5.60
2019-02-02T19:14:09.931Z,5.70
2019-02-02T19:16:36.993Z,5.70
2019-02-02T19:19:04.313Z,5.70
2019-02-02T19:21:31.421Z,5.80
2019-02-02T19:23:58.350Z,5.80
2019-02-02T19:26:25.646Z,5.80
2019-02-02T19:28:52.694Z,5.80
2019-02-02T19:31:19.704Z,5.80
2019-02-02T19:33:46.794Z,5.80
2019-02-02T19:36:13.942Z,5.70
2019-02-02T19:38:41.388Z,5.70
2019-02-02T19:41:08.397Z,5.70
2019-02-02T19:43:35.570Z,5.60
2019-02-02T19:46:03.952Z,5.60
2019-02-02T19:48:31.411Z,5.70
2019-02-02T19:50:58.567Z,5.70
2019-02-02T19:53:25.807Z,5.70
2019-02-02T19:55:53.174Z,5.60
2019-02-02T19:58:22.823Z,5.60
2019-02-02T20:00:49.985Z,5.70
2019-02-02T20:03:17.197Z,5.70
2019-02-02T20:05:45.674Z,5.70
2019-02-02T20:08:12.679Z,5.70
2019-02-02T20:10:39.757Z,5.70
2019-02-02T20:13:06.755Z,5.60
2019-02-02T20:15:33.838Z,5.50
2019-02-02T20:18:09.515Z,5.50
2019-02-02T20:20:29.837Z,5.50
2019-02-02T20:22:56.911Z,5.40
2019-02-02T20:25:24.434Z,5.40
2019-02-02T20:27:51.507Z,5.30
2019-02-02T20:30:20.473Z,5.40
2019-02-02T20:32:47.547Z,5.40
2019-02-02T20:35:14.774Z,5.40
2019-02-02T20:37:41.753Z,5.40
2019-02-02T20:40:13.754Z,5.30
2019-02-02T20:42:40.890Z,5.30
2019-02-02T20:45:10.352Z,5.30
2019-02-02T20:47:37.345Z,5.30
2019-02-02T20:50:07.088Z,5.20
2019-02-02T20:52:34.227Z,5.30
2019-02-02T20:55:01.524Z,5.30
2019-02-02T20:57:28.751Z,5.30
2019-02-02T20:59:55.789Z,5.40
2019-02-02T21:02:23.308Z,5.40
2019-02-02T21:04:50.336Z,5.40
2019-02-02T21:07:17.542Z,5.40
2019-02-02T21:09:44.738Z,5.40
2019-02-02T21:12:11.866Z,5.40
2019-02-02T21:14:39.259Z,5.40
2019-02-02T21:17:06.608Z,5.30
2019-02-02T21:19:33.592Z,5.30
2019-02-02T21:22:00.855Z,5.40
2019-02-02T21:24:27.850Z,5.40
2019-02-02T21:26:54.947Z,5.40
2019-02-02T21:29:22.145Z,5.50
2019-02-02T21:31:49.199Z,5.50
2019-02-02T21:34:16.304Z,5.50
2019-02-02T21:36:43.318Z,5.50
2019-02-02T21:39:10.309Z,5.50
2019-02-02T21:41:37.417Z,5.50
2019-02-02T21:44:04.541Z,5.60
2019-02-02T21:46:31.556Z,5.60
2019-02-02T21:48:58.831Z,5.50
2019-02-02T21:51:26.289Z,5.60
2019-02-02T21:53:53.299Z,5.70
2019-02-02T21:56:20.328Z,5.60
2019-02-02T21:58:47.385Z,5.50
2019-02-02T22:01:23.754Z,5.60
2019-02-02T22:03:43.239Z,5.60
2019-02-02T22:06:15.597Z,5.60
2019-02-02T22:08:39.412Z,5.60
2019-02-02T22:11:06.467Z,5.60
2019-02-02T22:13:33.581Z,5.50
2019-02-02T22:16:00.720Z,5.50
2019-02-02T22:18:27.723Z,5.60
2019-02-02T22:20:55.031Z,5.50
2019-02-02T22:23:22.188Z,5.40
2019-02-02T22:25:49.328Z,5.40
2019-02-02T22:28:16.246Z,5.40
2019-02-02T22:30:43.300Z,5.30
2019-02-02T22:33:10.429Z,5.30
2019-02-02T22:35:37.799Z,5.10
2019-02-02T22:38:04.954Z,5.10
2019-02-02T22:40:31.980Z,5.10
2019-02-02T22:42:58.999Z,5.00
2019-02-02T22:45:26.024Z,5.00
2019-02-02T22:47:53.083Z,4.90
2019-02-02T22:50:21.792Z,4.90
2019-02-02T22:52:48.796Z,4.90
2019-02-02T22:55:16.589Z,4.90
2019-02-02T22:57:43.831Z,5.00
2019-02-02T23:00:57.334Z,4.90
2019-02-02T23:03:39.299Z,4.90
2019-02-02T23:07:00.873Z,4.90
2019-02-02T23:10:11.384Z,4.90
2019-02-02T23:13:17.622Z,4.70
2019-02-02T23:16:16.477Z,4.80
2019-02-02T23:18:46.669Z,4.80
2019-02-02T23:21:12.581Z,4.70
2019-02-02T23:23:39.592Z,4.80
2019-02-02T23:26:06.641Z,4.80
2019-02-02T23:28:33.908Z,4.80
2019-02-02T23:31:01.029Z,4.90
2019-02-02T23:33:28.086Z,4.90
2019-02-02T23:35:55.475Z,4.90
2019-02-02T23:38:22.532Z,4.80
2019-02-02T23:40:49.553Z,4.80
2019-02-02T23:43:16.612Z,4.80
2019-02-02T23:45:43.650Z,4.80
2019-02-02T23:48:10.623Z,4.80
2019-02-02T23:50:37.639Z,4.80
2019-02-02T23:53:04.696Z,4.90
2019-02-02T23:55:31.645Z,4.80
2019-02-02T23:57:58.783Z,4.80
